Time;durP1;ratioP1;P1;durP2;ratioP2;P2;SDS_P1;SDS_P2;PMS_P1;PMS_P2;Temp;Humidity;BMP_temperature;BMP_pressure;BME280_temperature;BME280_humidity;BME280_pressure;Samples;Min_cycle;Max_cycle;Signal;HPM_P1;HPM_P2
2021/12/11 00:00:15;;;;;;;15.48;12.10;;;3.70;97.70;;;;;;5046202;28;20086;-66
2021/12/11 00:02:43;;;;;;;15.15;12.50;;;3.70;97.70;;;;;;5041631;28;20020;-67
2021/12/11 00:05:13;;;;;;;14.85;12.02;;;3.70;97.60;;;;;;5045742;28;20635;-66
2021/12/11 00:07:39;;;;;;;16.40;12.48;;;3.70;97.70;;;;;;5046722;28;20686;-66
2021/12/11 00:10:20;;;;;;;15.93;12.68;;;3.70;97.60;;;;;;5046421;28;20028;-66
2021/12/11 00:12:54;;;;;;;15.48;12.60;;;3.70;97.50;;;;;;5040777;28;20037;-66
2021/12/11 00:15:27;;;;;;;15.35;12.35;;;3.70;97.70;;;;;;5047283;28;20040;-66
2021/12/11 00:18:23;;;;;;;15.43;12.40;;;3.70;97.70;;;;;;5043454;28;20044;-66
2021/12/11 00:20:54;;;;;;;17.95;13.13;;;3.70;97.50;;;;;;5026323;28;22019;-66
2021/12/11 00:23:26;;;;;;;18.25;13.75;;;3.70;97.30;;;;;;5041054;28;20498;-66
2021/12/11 00:25:52;;;;;;;17.83;13.57;;;3.70;97.40;;;;;;5042246;28;20045;-67
2021/12/11 00:28:18;;;;;;;18.17;14.10;;;3.60;97.50;;;;;;5043419;28;20356;-66
2021/12/11 00:30:46;;;;;;;19.40;14.07;;;3.60;97.40;;;;;;5043735;28;20427;-66
2021/12/11 00:33:19;;;;;;;17.20;13.45;;;3.60;97.50;;;;;;5041509;28;20035;-67
2021/12/11 00:35:46;;;;;;;18.40;14.00;;;3.70;97.90;;;;;;5045356;28;20140;-66
2021/12/11 00:38:21;;;;;;;18.33;14.20;;;3.70;97.60;;;;;;5042118;28;20085;-67
2021/12/11 00:40:48;;;;;;;16.17;12.63;;;3.70;97.50;;;;;;5046033;28;20497;-67
2021/12/11 00:43:20;;;;;;;16.30;13.60;;;3.80;97.50;;;;;;5041223;28;20037;-66
2021/12/11 00:45:48;;;;;;;20.30;13.98;;;3.80;97.30;;;;;;5043792;28;20044;-66
2021/12/11 00:48:22;;;;;;;18.30;13.80;;;3.80;97.30;;;;;;5042634;28;20036;-67
2021/12/11 00:50:50;;;;;;;18.92;14.27;;;3.80;97.30;;;;;;5041893;28;20025;-67
2021/12/11 00:53:22;;;;;;;18.77;14.05;;;3.80;97.40;;;;;;5043038;28;20033;-67
2021/12/11 00:55:51;;;;;;;17.73;14.55;;;3.80;97.40;;;;;;5042874;28;20033;-66
2021/12/11 00:58:27;;;;;;;17.45;14.13;;;3.80;97.30;;;;;;5042160;28;20029;-66
2021/12/11 01:00:55;;;;;;;18.95;13.98;;;3.80;97.30;;;;;;5044202;28;23207;-66
2021/12/11 01:03:29;;;;;;;20.33;14.48;;;3.80;97.20;;;;;;5042717;28;20025;-66
2021/12/11 01:05:57;;;;;;;17.65;13.68;;;3.80;97.20;;;;;;5042337;28;20040;-66
2021/12/11 01:08:33;;;;;;;17.02;13.80;;;3.80;97.40;;;;;;5044498;28;20061;-65
2021/12/11 01:11:37;;;;;;;16.60;12.95;;;3.80;97.40;;;;;;5045149;28;20544;-67
2021/12/11 01:14:22;;;;;;;18.13;13.55;;;3.80;97.20;;;;;;5044323;28;20075;-66
2021/12/11 01:16:56;;;;;;;17.80;14.20;;;3.60;97.50;;;;;;5042011;28;20041;-66
2021/12/11 01:19:23;;;;;;;16.90;13.02;;;3.60;97.80;;;;;;5044319;28;20033;-67
2021/12/11 01:22:00;;;;;;;16.52;12.82;;;3.60;97.90;;;;;;5044424;28;20013;-67
2021/12/11 01:24:45;;;;;;;16.83;12.90;;;3.60;97.90;;;;;;5043489;28;20049;-67
2021/12/11 01:27:17;;;;;;;15.73;12.55;;;3.60;98.00;;;;;;5042847;28;20043;-66
2021/12/11 01:29:45;;;;;;;17.40;12.45;;;3.60;98.10;;;;;;5041903;28;20025;-66
2021/12/11 01:32:12;;;;;;;17.48;12.55;;;3.60;98.10;;;;;;5040833;28;20036;-66
2021/12/11 01:34:38;;;;;;;16.70;13.68;;;3.50;97.90;;;;;;5043929;28;20120;-66
2021/12/11 01:37:06;;;;;;;18.42;13.57;;;3.50;98.10;;;;;;5040009;28;20033;-66
2021/12/11 01:39:35;;;;;;;18.85;14.63;;;3.50;98.00;;;;;;5043455;28;20388;-66
2021/12/11 01:42:11;;;;;;;18.27;14.48;;;3.60;97.90;;;;;;5042752;28;20110;-66
2021/12/11 01:44:39;;;;;;;18.48;13.02;;;3.50;98.00;;;;;;5041788;28;20033;-66
2021/12/11 01:47:11;;;;;;;17.23;13.45;;;3.50;98.30;;;;;;5041522;28;20162;-66
2021/12/11 01:49:40;;;;;;;17.90;12.82;;;3.50;98.50;;;;;;5040494;28;20032;-67
2021/12/11 01:52:32;;;;;;;17.45;12.88;;;3.50;98.40;;;;;;5040907;28;20487;-67
2021/12/11 01:54:58;;;;;;;15.63;12.40;;;3.60;98.30;;;;;;5044512;28;20034;-66
2021/12/11 01:57:28;;;;;;;16.27;12.65;;;3.60;98.20;;;;;;5042484;28;20040;-65
2021/12/11 01:59:58;;;;;;;16.92;12.85;;;3.70;98.20;;;;;;5037471;28;20028;-66
2021/12/11 02:02:36;;;;;;;17.13;12.77;;;3.70;98.20;;;;;;5041179;28;20060;-65
2021/12/11 02:05:04;;;;;;;17.50;13.00;;;3.80;98.10;;;;;;5043320;28;20030;-66
2021/12/11 02:07:36;;;;;;;18.58;14.05;;;3.80;98.00;;;;;;5043147;28;20112;-66
2021/12/11 02:10:10;;;;;;;18.88;13.82;;;3.80;97.80;;;;;;5045137;28;20032;-66
2021/12/11 02:12:40;;;;;;;18.73;14.05;;;3.70;97.70;;;;;;5040843;28;21284;-66
2021/12/11 02:15:10;;;;;;;18.15;13.75;;;3.70;97.80;;;;;;5044135;28;20028;-66
2021/12/11 02:17:59;;;;;;;17.45;13.40;;;3.80;97.90;;;;;;5043109;28;20021;-66
2021/12/11 02:20:56;;;;;;;18.13;13.85;;;3.80;97.90;;;;;;5041439;28;20032;-66
2021/12/11 02:23:22;;;;;;;19.08;13.93;;;3.80;97.90;;;;;;5040991;28;20363;-67
2021/12/11 02:25:51;;;;;;;19.52;14.23;;;3.80;97.90;;;;;;5045890;28;20029;-66
2021/12/11 02:28:29;;;;;;;18.33;13.93;;;3.80;97.80;;;;;;5040387;28;20518;-66
2021/12/11 02:31:04;;;;;;;19.00;14.60;;;3.70;97.90;;;;;;5044269;28;20017;-66
2021/12/11 02:33:59;;;;;;;19.15;14.45;;;3.80;97.80;;;;;;5042415;28;20029;-66
2021/12/11 02:36:33;;;;;;;17.65;13.27;;;3.80;97.70;;;;;;5043488;28;20036;-66
2021/12/11 02:39:09;;;;;;;18.98;14.30;;;3.80;97.60;;;;;;5042575;28;20021;-67
2021/12/11 02:41:38;;;;;;;20.73;15.05;;;3.80;97.70;;;;;;5052929;28;20526;-66
2021/12/11 02:44:16;;;;;;;18.92;13.80;;;3.70;97.70;;;;;;5043362;28;20064;-67
2021/12/11 02:46:50;;;;;;;20.52;14.85;;;3.70;98.20;;;;;;5039922;28;20024;-67
2021/12/11 02:49:28;;;;;;;19.20;13.20;;;3.70;98.10;;;;;;5043568;28;20808;-68
2021/12/11 02:52:01;;;;;;;21.35;14.35;;;3.80;98.10;;;;;;5043591;28;20065;-67
2021/12/11 02:55:00;;;;;;;20.05;14.63;;;3.70;98.00;;;;;;5046150;28;20021;-67
2021/12/11 02:57:36;;;;;;;18.50;14.02;;;3.70;98.10;;;;;;5032991;28;20800;-67
2021/12/11 03:00:16;;;;;;;21.20;15.20;;;3.70;98.30;;;;;;5046217;28;20033;-67
2021/12/11 03:02:48;;;;;;;21.52;15.45;;;3.70;98.20;;;;;;5036613;28;20033;-67
2021/12/11 03:05:17;;;;;;;22.55;15.93;;;3.70;98.20;;;;;;5041258;28;20046;-67
2021/12/11 03:07:50;;;;;;;25.17;17.88;;;3.60;98.40;;;;;;5047440;28;20076;-67
2021/12/11 03:10:20;;;;;;;26.15;18.65;;;3.60;98.40;;;;;;5046136;28;20037;-67
2021/12/11 03:12:46;;;;;;;26.20;18.42;;;3.70;98.40;;;;;;5042411;28;20025;-67
2021/12/11 03:15:13;;;;;;;27.92;18.42;;;3.70;98.40;;;;;;5045240;28;20040;-67
2021/12/11 03:17:39;;;;;;;29.50;18.33;;;3.70;98.40;;;;;;5040682;28;20076;-67
2021/12/11 03:20:09;;;;;;;25.95;17.35;;;3.70;98.40;;;;;;5041007;28;20053;-67
2021/12/11 03:22:36;;;;;;;24.63;16.98;;;3.70;98.40;;;;;;5041470;28;20041;-67
2021/12/11 03:25:06;;;;;;;22.45;15.85;;;3.70;98.40;;;;;;5043744;28;20039;-67
2021/12/11 03:27:32;;;;;;;23.17;16.30;;;3.80;98.40;;;;;;5042861;28;20040;-67
2021/12/11 03:29:58;;;;;;;21.15;15.50;;;3.70;98.40;;;;;;5044974;28;20060;-67
2021/12/11 03:32:24;;;;;;;20.60;15.32;;;3.70;98.50;;;;;;5045231;28;20076;-66
2021/12/11 03:34:50;;;;;;;22.20;15.40;;;3.80;98.50;;;;;;5042212;28;20478;-67
2021/12/11 03:37:19;;;;;;;22.15;15.45;;;3.80;98.50;;;;;;5040953;28;20554;-67
2021/12/11 03:39:48;;;;;;;17.17;13.90;;;3.80;98.50;;;;;;5040383;28;20041;-67
2021/12/11 03:42:22;;;;;;;21.48;14.20;;;3.80;98.40;;;;;;5046936;28;20049;-67
2021/12/11 03:44:48;;;;;;;19.80;13.55;;;3.80;98.40;;;;;;5044515;28;20031;-67
2021/12/11 03:47:19;;;;;;;21.25;15.05;;;3.80;98.50;;;;;;5045821;28;20098;-66
2021/12/11 03:49:45;;;;;;;21.67;13.93;;;3.80;98.50;;;;;;5045440;28;20136;-68
2021/12/11 03:52:13;;;;;;;21.55;14.35;;;3.80;98.40;;;;;;5037892;28;20060;-67
2021/12/11 03:54:41;;;;;;;20.02;14.23;;;3.90;98.40;;;;;;5043220;28;20033;-67
2021/12/11 03:57:10;;;;;;;19.38;13.00;;;3.90;98.30;;;;;;5040115;28;20517;-67
2021/12/11 03:59:36;;;;;;;20.77;14.25;;;3.90;98.40;;;;;;5038221;28;20025;-67
2021/12/11 04:02:07;;;;;;;20.42;13.00;;;3.90;98.30;;;;;;5041995;28;20568;-67
2021/12/11 04:04:44;;;;;;;16.95;12.93;;;3.90;98.30;;;;;;5043185;28;20517;-67
2021/12/11 04:07:15;;;;;;;21.05;13.82;;;3.90;98.30;;;;;;5043678;28;20049;-67
2021/12/11 04:09:41;;;;;;;19.27;12.82;;;3.90;98.30;;;;;;5040685;28;20035;-67
2021/12/11 04:12:08;;;;;;;17.73;13.43;;;3.90;98.20;;;;;;5041133;28;20265;-67
2021/12/11 04:14:37;;;;;;;20.15;13.90;;;3.90;98.40;;;;;;5044409;28;20040;-67
2021/12/11 04:17:06;;;;;;;20.08;14.02;;;3.90;98.30;;;;;;5043476;28;20025;-67
2021/12/11 04:19:32;;;;;;;18.92;12.73;;;3.90;98.20;;;;;;5038823;28;20029;-67
2021/12/11 04:21:59;;;;;;;17.83;13.05;;;3.90;98.20;;;;;;5041201;28;20713;-67
2021/12/11 04:24:28;;;;;;;19.95;13.50;;;3.90;98.30;;;;;;5045580;28;20091;-67
2021/12/11 04:26:58;;;;;;;20.85;13.38;;;4.00;98.20;;;;;;5040294;28;20045;-67
2021/12/11 04:29:24;;;;;;;21.88;13.55;;;4.00;98.20;;;;;;5033769;28;20037;-67
2021/12/11 04:31:51;;;;;;;19.67;12.48;;;4.00;98.10;;;;;;5045417;28;20115;-67
2021/12/11 04:34:20;;;;;;;18.75;12.98;;;4.00;98.00;;;;;;5044929;28;20542;-67
2021/12/11 04:36:50;;;;;;;18.38;13.18;;;3.90;98.00;;;;;;5045204;28;20051;-67
2021/12/11 04:39:18;;;;;;;19.40;14.20;;;3.90;98.10;;;;;;5044544;28;20044;-67
2021/12/11 04:44:43;;;;;;;19.38;13.65;;;3.80;98.10;;;;;;5043606;28;20040;-67
2021/12/11 04:47:28;;;;;;;18.55;13.57;;;3.90;98.10;;;;;;5041536;28;20041;-67
2021/12/11 04:49:58;;;;;;;20.42;14.23;;;3.90;98.10;;;;;;5045836;28;20017;-67
2021/12/11 04:52:44;;;;;;;19.42;13.77;;;3.90;98.20;;;;;;5044557;28;20033;-67
2021/12/11 04:55:28;;;;;;;20.85;15.02;;;3.90;98.20;;;;;;5041264;28;20057;-67
2021/12/11 04:58:05;;;;;;;22.23;14.75;;;3.90;98.10;;;;;;5043918;28;20036;-67
2021/12/11 05:03:47;;;;;;;18.40;14.02;;;3.90;98.00;;;;;;5043946;28;20063;-67
2021/12/11 05:11:34;;;;;;;25.30;15.50;;;3.90;98.10;;;;;;5041879;28;20048;-67
2021/12/11 05:14:01;;;;;;;20.90;15.30;;;3.90;98.20;;;;;;5044017;28;20044;-66
2021/12/11 05:16:27;;;;;;;22.65;16.27;;;3.90;98.10;;;;;;5040318;28;20094;-67
2021/12/11 05:18:52;;;;;;;21.95;14.65;;;3.90;98.10;;;;;;5040567;28;20467;-67
2021/12/11 05:21:19;;;;;;;21.25;15.00;;;3.90;97.90;;;;;;5040593;28;20564;-65
2021/12/11 05:23:46;;;;;;;22.95;15.77;;;3.90;97.90;;;;;;5042668;28;20487;-65
2021/12/11 05:26:12;;;;;;;23.17;15.57;;;3.90;97.90;;;;;;5043333;28;20474;-67
2021/12/11 05:28:38;;;;;;;20.98;14.57;;;3.90;98.00;;;;;;5042862;28;20029;-67
2021/12/11 05:31:07;;;;;;;22.02;15.23;;;3.90;98.10;;;;;;5043573;28;20033;-67
2021/12/11 05:33:33;;;;;;;22.05;15.15;;;3.80;98.20;;;;;;5046459;28;20078;-65
2021/12/11 05:35:58;;;;;;;18.90;13.50;;;3.80;98.30;;;;;;5041931;28;20119;-65
2021/12/11 05:38:25;;;;;;;21.35;14.98;;;3.80;98.10;;;;;;5047840;28;20041;-65
2021/12/11 05:40:59;;;;;;;20.52;13.98;;;3.90;97.90;;;;;;5042671;28;20060;-65
2021/12/11 05:43:25;;;;;;;25.33;15.23;;;3.90;97.90;;;;;;5043932;28;20032;-65
2021/12/11 05:45:51;;;;;;;18.95;13.73;;;3.90;98.00;;;;;;5044379;28;20156;-66
2021/12/11 05:48:18;;;;;;;19.85;15.13;;;3.90;98.00;;;;;;5042159;28;20128;-65
2021/12/11 05:50:47;;;;;;;21.55;14.95;;;3.90;97.90;;;;;;5040729;28;20052;-68
2021/12/11 05:53:14;;;;;;;28.40;19.58;;;3.90;97.70;;;;;;5039791;28;20449;-67
2021/12/11 05:55:41;;;;;;;23.33;16.50;;;3.90;97.70;;;;;;5043518;28;20056;-67
2021/12/11 05:58:11;;;;;;;21.23;14.52;;;3.90;97.70;;;;;;5040722;28;20036;-67
2021/12/11 06:00:47;;;;;;;22.42;15.55;;;3.90;97.60;;;;;;5041884;28;20036;-68
2021/12/11 06:03:13;;;;;;;23.67;16.33;;;3.80;97.70;;;;;;5038961;28;20044;-68
2021/12/11 06:05:39;;;;;;;20.70;15.32;;;3.80;98.00;;;;;;5043530;28;20033;-67
2021/12/11 06:08:08;;;;;;;21.08;15.27;;;3.80;97.90;;;;;;5044509;28;20505;-67
2021/12/11 06:10:34;;;;;;;21.65;15.30;;;3.80;97.70;;;;;;5043842;28;20033;-67
2021/12/11 06:13:01;;;;;;;24.65;15.85;;;3.90;97.80;;;;;;5047260;28;20452;-67
2021/12/11 06:15:27;;;;;;;22.90;16.05;;;3.90;97.90;;;;;;5042546;28;20028;-68
2021/12/11 06:17:53;;;;;;;21.98;15.77;;;3.90;97.80;;;;;;5040345;28;20120;-68
2021/12/11 06:20:23;;;;;;;24.13;16.23;;;3.90;97.80;;;;;;5041314;28;20021;-68
2021/12/11 06:22:49;;;;;;;25.42;16.92;;;3.90;97.70;;;;;;5043987;28;20025;-68
2021/12/11 06:25:20;;;;;;;21.50;15.35;;;3.90;97.70;;;;;;5047392;28;20044;-65
2021/12/11 06:27:46;;;;;;;21.98;15.15;;;3.70;97.70;;;;;;5045775;28;20151;-68
2021/12/11 06:30:14;;;;;;;24.02;17.17;;;3.60;98.00;;;;;;5045304;28;20518;-66
2021/12/11 06:32:40;;;;;;;26.60;18.80;;;3.60;98.20;;;;;;5044985;28;20079;-65
2021/12/11 06:35:16;;;;;;;42.60;28.17;;;3.60;98.40;;;;;;5043043;28;21741;-65
2021/12/11 06:37:42;;;;;;;32.63;22.25;;;3.70;98.30;;;;;;5046361;28;20025;-65
2021/12/11 06:40:09;;;;;;;32.25;21.58;;;3.70;98.20;;;;;;5046963;28;20072;-65
2021/12/11 06:42:35;;;;;;;35.42;24.70;;;3.70;98.10;;;;;;5047780;28;20124;-67
2021/12/11 06:45:00;;;;;;;36.15;24.08;;;3.70;98.10;;;;;;5044295;28;20112;-67
2021/12/11 06:47:26;;;;;;;40.95;26.23;;;3.70;98.20;;;;;;5046819;28;20044;-66
2021/12/11 06:49:52;;;;;;;40.63;26.65;;;3.80;98.30;;;;;;5042833;28;20029;-66
2021/12/11 06:52:21;;;;;;;43.67;26.85;;;3.80;98.20;;;;;;5045625;28;22496;-66
2021/12/11 06:54:49;;;;;;;38.40;27.80;;;3.90;98.10;;;;;;5044658;28;20025;-66
2021/12/11 06:57:15;;;;;;;42.45;29.10;;;3.90;98.00;;;;;;5046472;28;20037;-66
2021/12/11 06:59:41;;;;;;;41.38;28.00;;;3.90;97.90;;;;;;5044812;28;20037;-66
2021/12/11 07:02:07;;;;;;;37.25;25.33;;;3.90;97.90;;;;;;5042579;28;20072;-66
2021/12/11 07:04:33;;;;;;;30.05;19.52;;;3.90;97.90;;;;;;5044841;28;20116;-66
2021/12/11 07:06:59;;;;;;;25.00;17.05;;;3.90;97.90;;;;;;5048543;28;20048;-66
2021/12/11 07:09:28;;;;;;;29.40;19.95;;;3.90;97.90;;;;;;5044702;28;20511;-66
2021/12/11 07:11:55;;;;;;;30.95;21.13;;;3.90;98.00;;;;;;5047919;28;20032;-66
2021/12/11 07:14:23;;;;;;;31.05;21.98;;;3.90;98.20;;;;;;5043181;28;20033;-66
2021/12/11 07:16:49;;;;;;;29.00;20.90;;;3.90;98.10;;;;;;5049108;28;20056;-66
2021/12/11 07:19:16;;;;;;;22.77;15.93;;;3.90;98.10;;;;;;5046716;28;20029;-66
2021/12/11 07:21:42;;;;;;;21.48;14.25;;;3.90;98.00;;;;;;5046260;28;20053;-66
2021/12/11 07:24:13;;;;;;;20.10;14.18;;;3.90;98.20;;;;;;5044466;28;20051;-66
2021/12/11 07:26:39;;;;;;;20.52;13.85;;;3.90;98.10;;;;;;5044215;28;20031;-66
2021/12/11 07:29:13;;;;;;;22.40;14.95;;;3.90;98.00;;;;;;5042956;28;20098;-66
2021/12/11 07:31:41;;;;;;;20.30;13.68;;;3.90;97.90;;;;;;5045605;28;20473;-67
2021/12/11 07:34:08;;;;;;;21.88;15.65;;;3.90;97.90;;;;;;5045710;28;20095;-66
2021/12/11 07:36:34;;;;;;;25.17;18.77;;;3.90;97.80;;;;;;5046145;28;20065;-66
2021/12/11 07:39:08;;;;;;;32.22;26.92;;;3.90;97.80;;;;;;5042281;28;20036;-66
2021/12/11 07:41:34;;;;;;;32.22;27.48;;;3.70;98.00;;;;;;5045842;28;20076;-66
2021/12/11 07:44:00;;;;;;;27.50;21.17;;;3.60;98.40;;;;;;5041856;28;20029;-67
2021/12/11 07:46:28;;;;;;;23.50;16.55;;;3.60;98.90;;;;;;5043022;28;20045;-66
2021/12/11 07:48:56;;;;;;;16.63;11.48;;;3.60;98.70;;;;;;5045333;28;20136;-67
2021/12/11 07:51:23;;;;;;;12.77;9.13;;;3.60;98.70;;;;;;5043340;28;20037;-66
2021/12/11 07:53:50;;;;;;;13.52;10.18;;;3.70;98.60;;;;;;5043963;28;20489;-66
2021/12/11 07:56:18;;;;;;;13.77;9.52;;;3.80;98.70;;;;;;5046543;28;20870;-66
2021/12/11 07:58:48;;;;;;;27.30;19.08;;;3.80;98.50;;;;;;5043409;28;20056;-66
2021/12/11 08:01:15;;;;;;;20.70;15.88;;;3.80;98.30;;;;;;5044117;28;20103;-67
2021/12/11 08:03:41;;;;;;;22.95;17.27;;;3.80;98.60;;;;;;5042830;28;20116;-66
2021/12/11 08:06:09;;;;;;;33.97;24.45;;;3.90;98.50;;;;;;5046021;28;20035;-67
2021/12/11 08:08:36;;;;;;;34.85;24.77;;;4.00;98.70;;;;;;5043267;28;20036;-66
2021/12/11 08:11:06;;;;;;;35.38;26.50;;;4.10;98.10;;;;;;5044777;28;20061;-67
2021/12/11 08:13:32;;;;;;;45.15;27.60;;;4.10;98.00;;;;;;5042565;28;20091;-66
2021/12/11 08:15:58;;;;;;;36.88;25.90;;;4.20;98.10;;;;;;5039869;28;20809;-66
2021/12/11 08:18:26;;;;;;;21.63;15.95;;;4.20;98.50;;;;;;5045747;28;20116;-65
2021/12/11 08:20:53;;;;;;;25.48;17.27;;;4.30;98.20;;;;;;5045682;28;20040;-66
2021/12/11 08:23:20;;;;;;;25.08;17.35;;;4.40;98.20;;;;;;5043739;28;20048;-66
2021/12/11 08:25:47;;;;;;;22.77;16.15;;;4.40;97.80;;;;;;5044794;28;20032;-66
2021/12/11 08:28:16;;;;;;;20.90;15.32;;;4.40;97.90;;;;;;5042881;28;20029;-66
2021/12/11 08:30:44;;;;;;;24.40;15.98;;;4.40;97.90;;;;;;5039681;28;20475;-68
2021/12/11 08:33:10;;;;;;;20.80;15.55;;;4.50;97.90;;;;;;5039114;28;20533;-66
2021/12/11 08:35:37;;;;;;;20.23;15.15;;;4.50;97.80;;;;;;5040467;28;20048;-67
2021/12/11 08:38:05;;;;;;;27.83;21.45;;;4.50;97.90;;;;;;5038792;28;20037;-67
2021/12/11 08:40:36;;;;;;;28.27;21.08;;;4.50;97.40;;;;;;5036156;28;20057;-67
2021/12/11 08:43:03;;;;;;;23.77;18.00;;;4.40;97.50;;;;;;5041490;28;20032;-66
2021/12/11 08:45:55;;;;;;;23.48;17.63;;;4.40;97.60;;;;;;5041653;28;20095;-67
2021/12/11 08:48:22;;;;;;;24.02;17.67;;;4.40;97.90;;;;;;5038574;28;20630;-67
2021/12/11 08:50:51;;;;;;;22.50;17.63;;;4.40;97.90;;;;;;5041063;28;20491;-67
2021/12/11 08:53:18;;;;;;;24.67;17.45;;;4.40;97.90;;;;;;5042741;28;20017;-67
2021/12/11 08:55:49;;;;;;;18.33;14.77;;;4.50;98.10;;;;;;5042302;28;20033;-67
2021/12/11 08:58:17;;;;;;;20.52;15.60;;;4.50;98.10;;;;;;5045097;28;20029;-67
2021/12/11 09:01:08;;;;;;;22.20;17.25;;;4.50;97.80;;;;;;5041556;28;20120;-67
2021/12/11 09:03:40;;;;;;;21.15;16.60;;;4.40;97.80;;;;;;5041077;28;20474;-67
2021/12/11 09:06:10;;;;;;;23.33;17.25;;;4.40;97.90;;;;;;5042736;28;20045;-66
2021/12/11 09:08:40;;;;;;;24.20;16.50;;;4.40;98.00;;;;;;5040374;28;20164;-67
2021/12/11 09:11:14;;;;;;;24.17;17.10;;;4.40;97.90;;;;;;5039218;28;20542;-67
2021/12/11 09:13:53;;;;;;;23.55;16.52;;;4.40;97.70;;;;;;5039634;28;20502;-67
2021/12/11 09:17:01;;;;;;;20.27;13.98;;;4.30;98.00;;;;;;5043353;28;20036;-68
2021/12/11 09:19:40;;;;;;;17.63;12.75;;;4.40;98.10;;;;;;5031633;28;20041;-67
2021/12/11 09:22:17;;;;;;;19.60;13.43;;;4.40;97.90;;;;;;5042194;28;20039;-66
2021/12/11 09:24:43;;;;;;;16.75;13.23;;;4.40;98.00;;;;;;5041593;28;20017;-67
2021/12/11 09:27:19;;;;;;;23.40;17.63;;;4.40;98.10;;;;;;5045325;28;20036;-67
2021/12/11 09:30:12;;;;;;;25.02;17.55;;;4.40;98.30;;;;;;5040338;28;20029;-67
2021/12/11 09:32:51;;;;;;;29.38;19.02;;;4.50;98.20;;;;;;5039148;28;20025;-67
2021/12/11 09:35:57;;;;;;;31.45;21.85;;;4.70;98.00;;;;;;5042657;28;20565;-67
2021/12/11 09:38:35;;;;;;;29.23;19.88;;;4.80;97.80;;;;;;5028956;28;20510;-67
2021/12/11 09:41:21;;;;;;;33.40;23.52;;;4.80;97.60;;;;;;5038028;28;20495;-67
2021/12/11 09:43:52;;;;;;;28.85;20.50;;;4.80;97.30;;;;;;5039595;28;20032;-67
2021/12/11 09:46:30;;;;;;;28.95;19.58;;;4.80;97.50;;;;;;5039327;28;20088;-67
2021/12/11 09:48:57;;;;;;;39.15;25.48;;;4.80;97.60;;;;;;5041307;28;20049;-66
2021/12/11 09:51:28;;;;;;;39.97;25.73;;;4.80;97.60;;;;;;5039252;28;20498;-66
2021/12/11 09:53:59;;;;;;;33.00;22.10;;;4.80;97.60;;;;;;5039517;28;20086;-67
2021/12/11 09:56:31;;;;;;;39.17;27.27;;;4.80;97.50;;;;;;5043465;28;20040;-66
2021/12/11 09:59:01;;;;;;;47.75;31.77;;;4.90;97.40;;;;;;5040828;28;20025;-67
2021/12/11 10:01:32;;;;;;;39.97;27.73;;;5.00;97.30;;;;;;5042327;28;20057;-66
2021/12/11 10:04:18;;;;;;;45.28;28.98;;;5.00;97.40;;;;;;5038631;28;20131;-66
2021/12/11 10:07:13;;;;;;;48.20;31.73;;;5.00;97.40;;;;;;5041471;28;20079;-67
2021/12/11 10:09:42;;;;;;;41.13;28.63;;;5.00;97.40;;;;;;5038426;28;20041;-66
2021/12/11 10:12:21;;;;;;;43.00;28.02;;;5.10;97.30;;;;;;5040680;28;20483;-66
2021/12/11 10:14:50;;;;;;;33.58;22.73;;;5.10;97.10;;;;;;5037200;28;20033;-66
2021/12/11 10:17:20;;;;;;;19.52;13.98;;;5.10;97.30;;;;;;5037064;28;20060;-66
2021/12/11 10:19:48;;;;;;;16.77;11.95;;;5.10;97.40;;;;;;5040014;28;20036;-66
2021/12/11 10:22:19;;;;;;;16.35;12.48;;;5.20;97.10;;;;;;5041747;28;20033;-66
2021/12/11 10:24:45;;;;;;;17.70;12.60;;;5.20;96.80;;;;;;5042815;28;20025;-66
2021/12/11 10:27:17;;;;;;;15.77;11.52;;;5.30;96.90;;;;;;5041487;28;20049;-66
2021/12/11 10:29:45;;;;;;;17.67;11.93;;;5.30;96.80;;;;;;5042640;28;20029;-66
2021/12/11 10:32:18;;;;;;;16.70;11.13;;;5.30;96.60;;;;;;5038744;28;20119;-66
2021/12/11 10:34:49;;;;;;;16.30;11.23;;;5.30;96.60;;;;;;5039181;28;20454;-65
2021/12/11 10:37:19;;;;;;;16.95;11.13;;;5.30;96.60;;;;;;5042767;28;20029;-64
2021/12/11 10:39:50;;;;;;;18.85;11.77;;;5.30;96.60;;;;;;5039674;28;20033;-67
2021/12/11 10:42:17;;;;;;;17.33;12.05;;;5.30;96.50;;;;;;5041492;28;20112;-66
2021/12/11 10:44:48;;;;;;;15.50;11.57;;;5.30;96.60;;;;;;5038641;28;20025;-66
2021/12/11 10:47:26;;;;;;;17.03;12.43;;;5.30;96.90;;;;;;5039838;28;20384;-67
2021/12/11 10:49:53;;;;;;;18.73;12.57;;;5.20;96.80;;;;;;5040335;28;20395;-66
2021/12/11 10:52:25;;;;;;;16.38;12.18;;;5.20;97.10;;;;;;5041206;28;20025;-65
2021/12/11 10:54:54;;;;;;;15.63;11.85;;;5.20;97.10;;;;;;5037584;28;20020;-66
2021/12/11 10:57:22;;;;;;;16.35;11.32;;;5.20;96.90;;;;;;5029134;28;20676;-66
2021/12/11 10:59:51;;;;;;;21.55;15.20;;;5.20;97.00;;;;;;5037934;28;20036;-67
2021/12/11 11:02:26;;;;;;;14.38;11.45;;;5.20;97.20;;;;;;5029099;28;20048;-66
2021/12/11 11:05:07;;;;;;;15.38;10.93;;;5.10;97.20;;;;;;4991605;28;20052;-66
2021/12/11 11:07:34;;;;;;;13.73;9.68;;;5.10;97.30;;;;;;4997752;28;20034;-66
2021/12/11 11:10:03;;;;;;;32.67;24.75;;;5.10;97.40;;;;;;4998972;28;20038;-67
2021/12/11 11:12:32;;;;;;;75.93;55.22;;;5.10;97.20;;;;;;4999980;28;20057;-66
2021/12/11 11:14:59;;;;;;;44.58;31.35;;;5.10;97.10;;;;;;5000447;28;20034;-67
2021/12/11 11:17:29;;;;;;;19.23;14.90;;;5.00;97.00;;;;;;4993352;28;20049;-67
2021/12/11 11:19:55;;;;;;;33.72;24.88;;;4.90;97.00;;;;;;4995740;28;20150;-66
2021/12/11 11:22:26;;;;;;;28.15;23.23;;;4.90;97.30;;;;;;4997293;28;20041;-67
2021/12/11 11:25:05;;;;;;;15.23;10.50;;;4.80;97.10;;;;;;4996716;28;20083;-67
2021/12/11 11:27:31;;;;;;;13.40;9.25;;;4.80;97.10;;;;;;4996336;28;20045;-66
2021/12/11 11:29:57;;;;;;;9.77;6.93;;;4.70;97.40;;;;;;5002699;28;20030;-66
2021/12/11 11:32:32;;;;;;;12.98;10.05;;;4.70;97.60;;;;;;4996186;28;20374;-67
2021/12/11 11:35:06;;;;;;;12.40;9.13;;;4.70;97.50;;;;;;5002701;28;20068;-67
2021/12/11 11:37:35;;;;;;;9.95;6.88;;;4.70;97.60;;;;;;4998724;28;20037;-67
2021/12/11 11:40:03;;;;;;;14.43;8.43;;;4.70;97.50;;;;;;4999203;28;20081;-67
2021/12/11 11:42:29;;;;;;;9.55;6.20;;;4.70;97.70;;;;;;4995349;28;20473;-67
2021/12/11 11:44:55;;;;;;;13.68;9.75;;;4.80;98.00;;;;;;5002030;28;20053;-68
2021/12/11 11:47:22;;;;;;;14.80;10.95;;;4.80;97.70;;;;;;4996320;28;20150;-67
2021/12/11 11:49:48;;;;;;;9.18;6.53;;;4.80;97.30;;;;;;4995594;28;20049;-67
2021/12/11 11:52:18;;;;;;;11.30;7.75;;;4.80;97.50;;;;;;4999722;28;20034;-67
2021/12/11 11:54:48;;;;;;;10.88;8.20;;;4.80;97.60;;;;;;4995625;28;20038;-67
2021/12/11 11:57:36;;;;;;;11.15;7.20;;;4.80;97.10;;;;;;4993746;28;20577;-67
2021/12/11 12:00:11;;;;;;;8.88;6.32;;;4.80;97.40;;;;;;5000654;28;20103;-67
2021/12/11 12:02:38;;;;;;;14.13;9.80;;;4.80;97.50;;;;;;4998303;28;20091;-67
2021/12/11 12:05:04;;;;;;;8.68;6.82;;;4.90;97.40;;;;;;4993847;28;20171;-67
2021/12/11 12:07:32;;;;;;;8.65;6.55;;;4.90;97.30;;;;;;5001237;28;20034;-67
2021/12/11 12:10:05;;;;;;;7.32;6.03;;;4.90;97.40;;;;;;4994341;28;20035;-67
2021/12/11 12:12:31;;;;;;;9.32;6.63;;;4.80;97.50;;;;;;4997991;28;20539;-67
2021/12/11 12:14:58;;;;;;;11.63;9.32;;;4.80;97.40;;;;;;4999688;28;20053;-66
2021/12/11 12:17:29;;;;;;;15.60;12.48;;;4.80;97.30;;;;;;4998500;28;20037;-67
2021/12/11 12:19:57;;;;;;;8.88;6.07;;;4.80;97.20;;;;;;5003553;28;20049;-67
2021/12/11 12:22:23;;;;;;;10.95;6.55;;;4.80;97.10;;;;;;4991638;28;20042;-67
2021/12/11 12:24:53;;;;;;;9.25;7.45;;;4.80;97.50;;;;;;4999642;28;20022;-67
2021/12/11 12:27:22;;;;;;;9.43;7.40;;;4.80;97.50;;;;;;5001136;28;20144;-67
2021/12/11 12:29:48;;;;;;;9.65;6.68;;;4.80;97.10;;;;;;5000057;28;20052;-67
2021/12/11 12:32:18;;;;;;;8.93;6.32;;;4.70;97.10;;;;;;4996019;28;20030;-66
2021/12/11 12:34:45;;;;;;;8.80;6.78;;;4.80;97.40;;;;;;5001437;28;20042;-66
2021/12/11 12:37:12;;;;;;;9.15;6.75;;;4.80;97.40;;;;;;4998572;28;20040;-67
2021/12/11 12:39:45;;;;;;;10.00;7.80;;;4.80;97.50;;;;;;5000746;28;20542;-67
2021/12/11 12:42:27;;;;;;;12.68;7.97;;;4.80;97.20;;;;;;4999530;28;20034;-67
2021/12/11 12:45:11;;;;;;;9.23;7.45;;;4.70;97.00;;;;;;5000197;28;20109;-67
2021/12/11 12:47:43;;;;;;;10.75;7.93;;;4.70;97.30;;;;;;4996111;28;20715;-67
2021/12/11 12:50:32;;;;;;;12.10;8.77;;;4.70;97.60;;;;;;4992475;28;20087;-67
2021/12/11 12:52:59;;;;;;;13.18;8.40;;;4.80;97.70;;;;;;4997914;28;20461;-67
2021/12/11 12:55:47;;;;;;;11.98;8.23;;;4.80;97.80;;;;;;4998123;28;20029;-67
2021/12/11 12:58:22;;;;;;;12.05;8.60;;;4.80;97.80;;;;;;4994257;28;20018;-66
2021/12/11 13:00:58;;;;;;;11.73;7.95;;;4.80;97.60;;;;;;4996911;28;20116;-66
2021/12/11 13:03:27;;;;;;;11.45;8.50;;;4.80;97.60;;;;;;4997579;28;20057;-66
2021/12/11 13:06:01;;;;;;;12.27;8.38;;;4.90;97.50;;;;;;4998976;28;20103;-65
2021/12/11 13:08:32;;;;;;;10.82;7.43;;;4.90;97.60;;;;;;4998558;28;20030;-66